sensor_id;sensor_type;location;lat;lon;timestamp;P1;durP1;ratioP1;P2;durP2;ratioP2
13985;SDS011;7067;51.832;8.296;2022-09-09T00:01:08;2.67;;;1.30;;
13985;SDS011;7067;51.832;8.296;2022-09-09T00:04:03;1.92;;;0.80;;
13985;SDS011;7067;51.832;8.296;2022-09-09T00:06:35;2.53;;;0.50;;
13985;SDS011;7067;51.832;8.296;2022-09-09T00:09:12;3.10;;;0.73;;
13985;SDS011;7067;51.832;8.296;2022-09-09T00:19:54;3.13;;;0.77;;
13985;SDS011;7067;51.832;8.296;2022-09-09T00:22:23;3.67;;;0.80;;
13985;SDS011;7067;51.832;8.296;2022-09-09T00:24:51;3.00;;;1.00;;
13985;SDS011;7067;51.832;8.296;2022-09-09T00:30:00;3.58;;;1.55;;
13985;SDS011;7067;51.832;8.296;2022-09-09T00:32:37;3.05;;;0.77;;
13985;SDS011;7067;51.832;8.296;2022-09-09T00:35:04;3.40;;;0.80;;
13985;SDS011;7067;51.832;8.296;2022-09-09T00:37:40;5.13;;;0.82;;
13985;SDS011;7067;51.832;8.296;2022-09-09T00:40:41;1.42;;;0.68;;
13985;SDS011;7067;51.832;8.296;2022-09-09T00:43:14;3.80;;;0.68;;
13985;SDS011;7067;51.832;8.296;2022-09-09T00:46:10;4.45;;;1.02;;
13985;SDS011;7067;51.832;8.296;2022-09-09T00:51:25;2.90;;;1.00;;
13985;SDS011;7067;51.832;8.296;2022-09-09T00:56:24;4.15;;;1.13;;
13985;SDS011;7067;51.832;8.296;2022-09-09T00:59:08;2.78;;;0.98;;
13985;SDS011;7067;51.832;8.296;2022-09-09T01:01:49;3.85;;;1.10;;
13985;SDS011;7067;51.832;8.296;2022-09-09T01:04:16;3.08;;;1.40;;
13985;SDS011;7067;51.832;8.296;2022-09-09T01:06:45;2.55;;;1.27;;
13985;SDS011;7067;51.832;8.296;2022-09-09T01:09:32;5.43;;;1.58;;
13985;SDS011;7067;51.832;8.296;2022-09-09T01:12:25;3.00;;;1.20;;
13985;SDS011;7067;51.832;8.296;2022-09-09T01:15:13;3.65;;;0.98;;
13985;SDS011;7067;51.832;8.296;2022-09-09T01:17:50;2.65;;;0.90;;
13985;SDS011;7067;51.832;8.296;2022-09-09T01:26:19;2.47;;;1.27;;
13985;SDS011;7067;51.832;8.296;2022-09-09T01:28:48;2.45;;;0.90;;
13985;SDS011;7067;51.832;8.296;2022-09-09T01:31:31;2.63;;;0.70;;
13985;SDS011;7067;51.832;8.296;2022-09-09T01:33:58;2.72;;;0.85;;
13985;SDS011;7067;51.832;8.296;2022-09-09T01:36:34;4.57;;;1.20;;
13985;SDS011;7067;51.832;8.296;2022-09-09T01:39:35;1.50;;;0.80;;
13985;SDS011;7067;51.832;8.296;2022-09-09T01:42:02;5.47;;;1.65;;
13985;SDS011;7067;51.832;8.296;2022-09-09T01:44:28;4.22;;;0.95;;
13985;SDS011;7067;51.832;8.296;2022-09-09T01:46:55;2.55;;;1.00;;
13985;SDS011;7067;51.832;8.296;2022-09-09T01:49:20;1.77;;;1.15;;
13985;SDS011;7067;51.832;8.296;2022-09-09T01:51:46;4.78;;;0.70;;
13985;SDS011;7067;51.832;8.296;2022-09-09T01:54:20;3.55;;;0.73;;
13985;SDS011;7067;51.832;8.296;2022-09-09T02:02:19;1.08;;;0.73;;
13985;SDS011;7067;51.832;8.296;2022-09-09T02:04:52;6.57;;;1.40;;
13985;SDS011;7067;51.832;8.296;2022-09-09T02:12:40;1.75;;;1.13;;
13985;SDS011;7067;51.832;8.296;2022-09-09T02:15:13;2.03;;;1.15;;
13985;SDS011;7067;51.832;8.296;2022-09-09T02:17:43;4.63;;;1.10;;
13985;SDS011;7067;51.832;8.296;2022-09-09T02:20:12;1.80;;;1.52;;
13985;SDS011;7067;51.832;8.296;2022-09-09T02:22:39;4.05;;;1.60;;
13985;SDS011;7067;51.832;8.296;2022-09-09T02:25:08;3.25;;;0.98;;
13985;SDS011;7067;51.832;8.296;2022-09-09T02:27:35;8.02;;;1.52;;
13985;SDS011;7067;51.832;8.296;2022-09-09T02:30:01;3.40;;;1.30;;
13985;SDS011;7067;51.832;8.296;2022-09-09T02:32:27;3.03;;;1.40;;
13985;SDS011;7067;51.832;8.296;2022-09-09T02:34:56;5.13;;;1.35;;
13985;SDS011;7067;51.832;8.296;2022-09-09T02:37:26;6.15;;;2.00;;
13985;SDS011;7067;51.832;8.296;2022-09-09T02:39:54;4.10;;;1.17;;
13985;SDS011;7067;51.832;8.296;2022-09-09T02:42:20;6.32;;;2.08;;
13985;SDS011;7067;51.832;8.296;2022-09-09T02:44:45;3.42;;;1.30;;
13985;SDS011;7067;51.832;8.296;2022-09-09T02:50:13;5.20;;;1.38;;
13985;SDS011;7067;51.832;8.296;2022-09-09T02:55:35;2.78;;;1.05;;
13985;SDS011;7067;51.832;8.296;2022-09-09T02:58:07;3.50;;;1.35;;
13985;SDS011;7067;51.832;8.296;2022-09-09T03:00:35;4.13;;;1.27;;
13985;SDS011;7067;51.832;8.296;2022-09-09T03:03:04;2.97;;;1.70;;
13985;SDS011;7067;51.832;8.296;2022-09-09T03:05:30;3.33;;;1.42;;
13985;SDS011;7067;51.832;8.296;2022-09-09T03:07:55;6.72;;;2.35;;
13985;SDS011;7067;51.832;8.296;2022-09-09T03:10:21;3.80;;;1.30;;
13985;SDS011;7067;51.832;8.296;2022-09-09T03:12:46;4.95;;;1.70;;
13985;SDS011;7067;51.832;8.296;2022-09-09T03:15:12;2.33;;;1.33;;
13985;SDS011;7067;51.832;8.296;2022-09-09T03:17:38;2.35;;;1.70;;
13985;SDS011;7067;51.832;8.296;2022-09-09T03:20:03;2.63;;;1.30;;
13985;SDS011;7067;51.832;8.296;2022-09-09T03:22:29;3.53;;;1.55;;
13985;SDS011;7067;51.832;8.296;2022-09-09T03:24:54;4.50;;;1.40;;
13985;SDS011;7067;51.832;8.296;2022-09-09T03:27:20;1.85;;;1.15;;
13985;SDS011;7067;51.832;8.296;2022-09-09T03:29:45;5.65;;;1.40;;
13985;SDS011;7067;51.832;8.296;2022-09-09T03:32:11;2.78;;;1.33;;
13985;SDS011;7067;51.832;8.296;2022-09-09T03:34:37;3.63;;;1.20;;
13985;SDS011;7067;51.832;8.296;2022-09-09T03:37:05;6.93;;;1.42;;
13985;SDS011;7067;51.832;8.296;2022-09-09T03:39:30;4.90;;;1.50;;
13985;SDS011;7067;51.832;8.296;2022-09-09T03:41:56;2.63;;;1.02;;
13985;SDS011;7067;51.832;8.296;2022-09-09T03:44:21;3.53;;;2.05;;
13985;SDS011;7067;51.832;8.296;2022-09-09T03:46:46;5.15;;;2.72;;
13985;SDS011;7067;51.832;8.296;2022-09-09T03:49:12;4.97;;;2.25;;
13985;SDS011;7067;51.832;8.296;2022-09-09T03:51:37;6.03;;;2.65;;
13985;SDS011;7067;51.832;8.296;2022-09-09T03:54:03;4.18;;;2.45;;
13985;SDS011;7067;51.832;8.296;2022-09-09T03:56:30;7.90;;;2.92;;
13985;SDS011;7067;51.832;8.296;2022-09-09T03:58:56;5.57;;;1.92;;
13985;SDS011;7067;51.832;8.296;2022-09-09T04:01:22;4.63;;;1.88;;
13985;SDS011;7067;51.832;8.296;2022-09-09T04:03:47;5.13;;;2.03;;
13985;SDS011;7067;51.832;8.296;2022-09-09T04:06:14;3.13;;;1.58;;
13985;SDS011;7067;51.832;8.296;2022-09-09T04:08:40;5.00;;;2.10;;
13985;SDS011;7067;51.832;8.296;2022-09-09T04:11:06;5.95;;;1.90;;
13985;SDS011;7067;51.832;8.296;2022-09-09T04:13:35;5.10;;;2.22;;
13985;SDS011;7067;51.832;8.296;2022-09-09T04:16:05;3.35;;;1.90;;
13985;SDS011;7067;51.832;8.296;2022-09-09T04:18:31;3.70;;;1.92;;
13985;SDS011;7067;51.832;8.296;2022-09-09T04:20:56;4.85;;;1.95;;
13985;SDS011;7067;51.832;8.296;2022-09-09T04:23:22;5.10;;;1.90;;
13985;SDS011;7067;51.832;8.296;2022-09-09T04:25:52;4.88;;;1.80;;
13985;SDS011;7067;51.832;8.296;2022-09-09T04:28:19;2.42;;;1.70;;
13985;SDS011;7067;51.832;8.296;2022-09-09T04:30:45;4.97;;;1.95;;
13985;SDS011;7067;51.832;8.296;2022-09-09T04:33:11;5.47;;;1.52;;
13985;SDS011;7067;51.832;8.296;2022-09-09T04:35:38;2.58;;;1.48;;
13985;SDS011;7067;51.832;8.296;2022-09-09T04:38:04;3.83;;;1.92;;
13985;SDS011;7067;51.832;8.296;2022-09-09T04:40:32;2.65;;;1.40;;
13985;SDS011;7067;51.832;8.296;2022-09-09T04:42:58;2.88;;;1.50;;
13985;SDS011;7067;51.832;8.296;2022-09-09T04:45:24;3.28;;;1.30;;
13985;SDS011;7067;51.832;8.296;2022-09-09T04:47:51;3.92;;;1.60;;
13985;SDS011;7067;51.832;8.296;2022-09-09T04:50:16;3.00;;;1.45;;
13985;SDS011;7067;51.832;8.296;2022-09-09T04:52:41;4.53;;;1.52;;
13985;SDS011;7067;51.832;8.296;2022-09-09T04:55:07;3.63;;;1.33;;
13985;SDS011;7067;51.832;8.296;2022-09-09T04:57:34;8.80;;;2.15;;
13985;SDS011;7067;51.832;8.296;2022-09-09T04:59:59;2.17;;;1.15;;
13985;SDS011;7067;51.832;8.296;2022-09-09T05:02:25;7.90;;;1.40;;
13985;SDS011;7067;51.832;8.296;2022-09-09T05:04:51;3.95;;;1.17;;
13985;SDS011;7067;51.832;8.296;2022-09-09T05:07:16;6.47;;;1.48;;
13985;SDS011;7067;51.832;8.296;2022-09-09T05:09:41;9.57;;;2.22;;
13985;SDS011;7067;51.832;8.296;2022-09-09T05:12:07;3.80;;;1.80;;
13985;SDS011;7067;51.832;8.296;2022-09-09T05:14:33;4.57;;;1.58;;
13985;SDS011;7067;51.832;8.296;2022-09-09T05:16:58;2.97;;;1.50;;
13985;SDS011;7067;51.832;8.296;2022-09-09T05:19:24;6.35;;;1.92;;
13985;SDS011;7067;51.832;8.296;2022-09-09T05:21:49;4.80;;;1.65;;
13985;SDS011;7067;51.832;8.296;2022-09-09T05:24:15;5.43;;;1.90;;
13985;SDS011;7067;51.832;8.296;2022-09-09T05:26:40;8.60;;;2.50;;
13985;SDS011;7067;51.832;8.296;2022-09-09T05:29:06;9.07;;;2.13;;
13985;SDS011;7067;51.832;8.296;2022-09-09T05:31:31;3.70;;;1.75;;
13985;SDS011;7067;51.832;8.296;2022-09-09T05:33:57;5.53;;;2.55;;
13985;SDS011;7067;51.832;8.296;2022-09-09T05:36:23;5.63;;;1.88;;
13985;SDS011;7067;51.832;8.296;2022-09-09T05:38:49;3.97;;;1.60;;
13985;SDS011;7067;51.832;8.296;2022-09-09T05:41:15;4.13;;;1.65;;
13985;SDS011;7067;51.832;8.296;2022-09-09T05:43:41;5.15;;;1.35;;
13985;SDS011;7067;51.832;8.296;2022-09-09T05:46:09;5.18;;;1.45;;
13985;SDS011;7067;51.832;8.296;2022-09-09T05:48:37;4.43;;;1.33;;
13985;SDS011;7067;51.832;8.296;2022-09-09T05:51:03;5.13;;;1.65;;
13985;SDS011;7067;51.832;8.296;2022-09-09T05:53:31;7.18;;;1.33;;
13985;SDS011;7067;51.832;8.296;2022-09-09T05:56:00;6.15;;;1.45;;
13985;SDS011;7067;51.832;8.296;2022-09-09T05:58:28;3.40;;;1.30;;
13985;SDS011;7067;51.832;8.296;2022-09-09T06:01:00;3.90;;;1.42;;
13985;SDS011;7067;51.832;8.296;2022-09-09T06:03:28;4.53;;;1.58;;
13985;SDS011;7067;51.832;8.296;2022-09-09T06:06:00;5.43;;;1.27;;
13985;SDS011;7067;51.832;8.296;2022-09-09T06:08:26;2.88;;;1.15;;
13985;SDS011;7067;51.832;8.296;2022-09-09T06:10:52;2.35;;;1.30;;
13985;SDS011;7067;51.832;8.296;2022-09-09T06:13:17;2.15;;;1.00;;
13985;SDS011;7067;51.832;8.296;2022-09-09T06:15:49;4.30;;;1.13;;
13985;SDS011;7067;51.832;8.296;2022-09-09T06:18:16;5.13;;;1.33;;
13985;SDS011;7067;51.832;8.296;2022-09-09T06:20:43;4.15;;;1.55;;
13985;SDS011;7067;51.832;8.296;2022-09-09T06:23:08;5.68;;;1.85;;
13985;SDS011;7067;51.832;8.296;2022-09-09T06:25:33;5.72;;;1.30;;
13985;SDS011;7067;51.832;8.296;2022-09-09T06:27:59;4.68;;;1.42;;
13985;SDS011;7067;51.832;8.296;2022-09-09T06:30:24;2.20;;;1.40;;
13985;SDS011;7067;51.832;8.296;2022-09-09T06:32:49;3.08;;;1.20;;
13985;SDS011;7067;51.832;8.296;2022-09-09T06:35:16;4.10;;;1.75;;
13985;SDS011;7067;51.832;8.296;2022-09-09T06:37:44;5.28;;;1.33;;
13985;SDS011;7067;51.832;8.296;2022-09-09T06:40:10;6.22;;;1.40;;
13985;SDS011;7067;51.832;8.296;2022-09-09T06:42:35;6.20;;;1.40;;
13985;SDS011;7067;51.832;8.296;2022-09-09T06:45:01;4.68;;;1.55;;
13985;SDS011;7067;51.832;8.296;2022-09-09T06:47:27;3.53;;;1.50;;
13985;SDS011;7067;51.832;8.296;2022-09-09T06:49:53;8.88;;;1.70;;
13985;SDS011;7067;51.832;8.296;2022-09-09T06:52:18;6.15;;;1.40;;
13985;SDS011;7067;51.832;8.296;2022-09-09T06:54:46;7.75;;;1.55;;
13985;SDS011;7067;51.832;8.296;2022-09-09T06:57:12;2.40;;;1.00;;
13985;SDS011;7067;51.832;8.296;2022-09-09T06:59:37;3.00;;;1.60;;
13985;SDS011;7067;51.832;8.296;2022-09-09T07:02:02;4.15;;;1.00;;
13985;SDS011;7067;51.832;8.296;2022-09-09T07:04:28;4.32;;;1.00;;
13985;SDS011;7067;51.832;8.296;2022-09-09T07:06:53;6.20;;;1.75;;
13985;SDS011;7067;51.832;8.296;2022-09-09T07:09:20;3.80;;;1.00;;
13985;SDS011;7067;51.832;8.296;2022-09-09T07:11:46;3.72;;;1.20;;
13985;SDS011;7067;51.832;8.296;2022-09-09T07:14:13;2.83;;;1.10;;
13985;SDS011;7067;51.832;8.296;2022-09-09T07:16:38;2.22;;;0.95;;
13985;SDS011;7067;51.832;8.296;2022-09-09T07:19:07;3.88;;;1.15;;
13985;SDS011;7067;51.832;8.296;2022-09-09T07:21:32;3.13;;;1.08;;
13985;SDS011;7067;51.832;8.296;2022-09-09T07:23:58;3.25;;;1.17;;
13985;SDS011;7067;51.832;8.296;2022-09-09T07:26:25;3.95;;;1.48;;
13985;SDS011;7067;51.832;8.296;2022-09-09T07:28:52;7.38;;;1.52;;
13985;SDS011;7067;51.832;8.296;2022-09-09T07:31:19;3.25;;;1.67;;
13985;SDS011;7067;51.832;8.296;2022-09-09T07:33:46;3.67;;;1.02;;
13985;SDS011;7067;51.832;8.296;2022-09-09T07:36:16;4.50;;;1.23;;
13985;SDS011;7067;51.832;8.296;2022-09-09T07:38:46;5.60;;;1.77;;
13985;SDS011;7067;51.832;8.296;2022-09-09T07:41:14;4.28;;;0.98;;
13985;SDS011;7067;51.832;8.296;2022-09-09T07:43:45;4.97;;;1.70;;
13985;SDS011;7067;51.832;8.296;2022-09-09T07:46:11;3.33;;;1.02;;
13985;SDS011;7067;51.832;8.296;2022-09-09T07:48:44;5.80;;;1.50;;
13985;SDS011;7067;51.832;8.296;2022-09-09T07:51:11;4.35;;;1.20;;
13985;SDS011;7067;51.832;8.296;2022-09-09T07:53:41;4.57;;;1.00;;
13985;SDS011;7067;51.832;8.296;2022-09-09T07:56:12;1.92;;;0.88;;
13985;SDS011;7067;51.832;8.296;2022-09-09T07:58:39;4.97;;;1.15;;
13985;SDS011;7067;51.832;8.296;2022-09-09T08:01:09;2.65;;;0.82;;
13985;SDS011;7067;51.832;8.296;2022-09-09T08:03:37;3.75;;;1.02;;
13985;SDS011;7067;51.832;8.296;2022-09-09T08:06:03;2.65;;;0.68;;
13985;SDS011;7067;51.832;8.296;2022-09-09T08:08:31;3.75;;;0.75;;
13985;SDS011;7067;51.832;8.296;2022-09-09T08:11:03;2.88;;;0.60;;
13985;SDS011;7067;51.832;8.296;2022-09-09T08:13:30;4.78;;;0.80;;
13985;SDS011;7067;51.832;8.296;2022-09-09T08:16:02;2.65;;;0.85;;
13985;SDS011;7067;51.832;8.296;2022-09-09T08:18:35;0.97;;;0.43;;
13985;SDS011;7067;51.832;8.296;2022-09-09T08:21:07;2.50;;;0.77;;
13985;SDS011;7067;51.832;8.296;2022-09-09T08:23:37;2.08;;;0.60;;
13985;SDS011;7067;51.832;8.296;2022-09-09T08:26:11;3.28;;;0.70;;
13985;SDS011;7067;51.832;8.296;2022-09-09T08:28:40;2.67;;;0.55;;
13985;SDS011;7067;51.832;8.296;2022-09-09T08:31:07;7.05;;;1.27;;
13985;SDS011;7067;51.832;8.296;2022-09-09T08:33:34;4.55;;;1.00;;
13985;SDS011;7067;51.832;8.296;2022-09-09T08:35:59;3.13;;;0.60;;
13985;SDS011;7067;51.832;8.296;2022-09-09T08:38:24;4.40;;;0.90;;
13985;SDS011;7067;51.832;8.296;2022-09-09T08:40:50;2.75;;;0.77;;
13985;SDS011;7067;51.832;8.296;2022-09-09T08:43:19;3.13;;;0.63;;
13985;SDS011;7067;51.832;8.296;2022-09-09T08:45:57;1.48;;;0.85;;
13985;SDS011;7067;51.832;8.296;2022-09-09T08:51:00;3.53;;;0.90;;
13985;SDS011;7067;51.832;8.296;2022-09-09T08:53:32;1.08;;;0.40;;
13985;SDS011;7067;51.832;8.296;2022-09-09T08:56:12;3.20;;;0.80;;
13985;SDS011;7067;51.832;8.296;2022-09-09T08:58:50;3.78;;;1.20;;
13985;SDS011;7067;51.832;8.296;2022-09-09T09:01:19;1.73;;;0.47;;
13985;SDS011;7067;51.832;8.296;2022-09-09T09:04:28;3.22;;;1.13;;
13985;SDS011;7067;51.832;8.296;2022-09-09T09:07:06;5.05;;;0.90;;
13985;SDS011;7067;51.832;8.296;2022-09-09T09:12:24;2.47;;;0.75;;
13985;SDS011;7067;51.832;8.296;2022-09-09T09:14:51;5.05;;;1.15;;
13985;SDS011;7067;51.832;8.296;2022-09-09T09:17:17;1.65;;;0.68;;
13985;SDS011;7067;51.832;8.296;2022-09-09T09:19:44;5.72;;;1.33;;
13985;SDS011;7067;51.832;8.296;2022-09-09T09:24:51;2.67;;;0.70;;
13985;SDS011;7067;51.832;8.296;2022-09-09T09:27:34;5.05;;;1.20;;
13985;SDS011;7067;51.832;8.296;2022-09-09T09:30:14;4.30;;;0.80;;
13985;SDS011;7067;51.832;8.296;2022-09-09T09:32:40;3.75;;;0.90;;
13985;SDS011;7067;51.832;8.296;2022-09-09T09:35:11;3.30;;;0.98;;
13985;SDS011;7067;51.832;8.296;2022-09-09T09:37:37;5.00;;;1.58;;
13985;SDS011;7067;51.832;8.296;2022-09-09T09:40:13;2.47;;;0.88;;
13985;SDS011;7067;51.832;8.296;2022-09-09T09:45:28;2.03;;;0.57;;
13985;SDS011;7067;51.832;8.296;2022-09-09T09:47:57;4.47;;;0.70;;
13985;SDS011;7067;51.832;8.296;2022-09-09T09:50:23;5.25;;;1.05;;
13985;SDS011;7067;51.832;8.296;2022-09-09T09:56:00;5.10;;;1.17;;
13985;SDS011;7067;51.832;8.296;2022-09-09T09:58:27;3.53;;;0.60;;
13985;SDS011;7067;51.832;8.296;2022-09-09T10:00:56;4.25;;;0.80;;
13985;SDS011;7067;51.832;8.296;2022-09-09T10:03:28;2.45;;;1.02;;
13985;SDS011;7067;51.832;8.296;2022-09-09T10:05:55;3.78;;;1.10;;
13985;SDS011;7067;51.832;8.296;2022-09-09T10:08:22;2.40;;;0.50;;
13985;SDS011;7067;51.832;8.296;2022-09-09T10:13:29;5.28;;;0.93;;
13985;SDS011;7067;51.832;8.296;2022-09-09T10:27:05;4.40;;;1.00;;
13985;SDS011;7067;51.832;8.296;2022-09-09T10:38:17;3.85;;;0.63;;
13985;SDS011;7067;51.832;8.296;2022-09-09T10:56:41;2.40;;;1.00;;
13985;SDS011;7067;51.832;8.296;2022-09-09T10:59:12;2.72;;;1.05;;
13985;SDS011;7067;51.832;8.296;2022-09-09T11:01:42;5.15;;;1.00;;
13985;SDS011;7067;51.832;8.296;2022-09-09T11:04:12;3.95;;;1.30;;
13985;SDS011;7067;51.832;8.296;2022-09-09T11:06:39;2.60;;;0.88;;
13985;SDS011;7067;51.832;8.296;2022-09-09T11:09:08;1.83;;;0.87;;
13985;SDS011;7067;51.832;8.296;2022-09-09T11:11:44;2.85;;;1.10;;
13985;SDS011;7067;51.832;8.296;2022-09-09T11:14:36;2.35;;;0.60;;
13985;SDS011;7067;51.832;8.296;2022-09-09T11:17:11;3.05;;;0.73;;
13985;SDS011;7067;51.832;8.296;2022-09-09T11:19:40;3.50;;;0.80;;
13985;SDS011;7067;51.832;8.296;2022-09-09T11:22:07;3.83;;;1.17;;
13985;SDS011;7067;51.832;8.296;2022-09-09T11:24:40;7.45;;;0.65;;
13985;SDS011;7067;51.832;8.296;2022-09-09T11:27:09;2.30;;;0.73;;
13985;SDS011;7067;51.832;8.296;2022-09-09T11:30:05;8.48;;;0.95;;
13985;SDS011;7067;51.832;8.296;2022-09-09T11:38:46;4.07;;;0.88;;
13985;SDS011;7067;51.832;8.296;2022-09-09T11:41:13;6.88;;;1.15;;
13985;SDS011;7067;51.832;8.296;2022-09-09T11:43:44;2.47;;;0.52;;
13985;SDS011;7067;51.832;8.296;2022-09-09T11:46:11;2.40;;;0.60;;
13985;SDS011;7067;51.832;8.296;2022-09-09T11:48:41;5.15;;;1.02;;
13985;SDS011;7067;51.832;8.296;2022-09-09T11:51:11;5.70;;;1.20;;
13985;SDS011;7067;51.832;8.296;2022-09-09T11:56:26;2.60;;;0.70;;
13985;SDS011;7067;51.832;8.296;2022-09-09T12:01:35;2.60;;;0.63;;
13985;SDS011;7067;51.832;8.296;2022-09-09T12:06:43;3.72;;;0.82;;
13985;SDS011;7067;51.832;8.296;2022-09-09T12:17:21;7.28;;;0.85;;
13985;SDS011;7067;51.832;8.296;2022-09-09T12:19:48;3.05;;;0.57;;
13985;SDS011;7067;51.832;8.296;2022-09-09T12:25:09;4.85;;;1.10;;
13985;SDS011;7067;51.832;8.296;2022-09-09T12:30:28;3.25;;;0.80;;
13985;SDS011;7067;51.832;8.296;2022-09-09T12:33:33;2.08;;;0.50;;
13985;SDS011;7067;51.832;8.296;2022-09-09T12:35:58;4.97;;;1.98;;
13985;SDS011;7067;51.832;8.296;2022-09-09T12:38:32;4.10;;;0.88;;
13985;SDS011;7067;51.832;8.296;2022-09-09T12:41:00;2.65;;;0.52;;
13985;SDS011;7067;51.832;8.296;2022-09-09T12:43:26;2.38;;;0.52;;
13985;SDS011;7067;51.832;8.296;2022-09-09T12:45:59;1.83;;;0.60;;
13985;SDS011;7067;51.832;8.296;2022-09-09T12:48:29;2.80;;;0.65;;
13985;SDS011;7067;51.832;8.296;2022-09-09T12:51:05;3.80;;;1.27;;
13985;SDS011;7067;51.832;8.296;2022-09-09T12:53:41;2.75;;;0.60;;
13985;SDS011;7067;51.832;8.296;2022-09-09T12:56:07;4.05;;;0.60;;
13985;SDS011;7067;51.832;8.296;2022-09-09T12:58:34;3.15;;;1.10;;
13985;SDS011;7067;51.832;8.296;2022-09-09T13:01:02;5.20;;;1.17;;
13985;SDS011;7067;51.832;8.296;2022-09-09T13:03:33;3.28;;;0.68;;
13985;SDS011;7067;51.832;8.296;2022-09-09T13:06:12;3.70;;;0.57;;
13985;SDS011;7067;51.832;8.296;2022-09-09T13:08:39;2.65;;;0.80;;
13985;SDS011;7067;51.832;8.296;2022-09-09T13:11:10;1.45;;;0.50;;
13985;SDS011;7067;51.832;8.296;2022-09-09T13:13:39;1.25;;;0.40;;
13985;SDS011;7067;51.832;8.296;2022-09-09T13:16:06;0.88;;;0.60;;
13985;SDS011;7067;51.832;8.296;2022-09-09T13:18:43;1.52;;;0.52;;
13985;SDS011;7067;51.832;8.296;2022-09-09T13:21:08;1.80;;;0.30;;
13985;SDS011;7067;51.832;8.296;2022-09-09T13:23:34;1.02;;;0.52;;
13985;SDS011;7067;51.832;8.296;2022-09-09T13:26:02;2.45;;;0.55;;
13985;SDS011;7067;51.832;8.296;2022-09-09T13:28:32;2.55;;;0.47;;
13985;SDS011;7067;51.832;8.296;2022-09-09T13:33:44;1.02;;;0.50;;
13985;SDS011;7067;51.832;8.296;2022-09-09T13:36:10;7.82;;;0.57;;
13985;SDS011;7067;51.832;8.296;2022-09-09T13:38:37;1.98;;;0.60;;
13985;SDS011;7067;51.832;8.296;2022-09-09T13:41:04;1.17;;;0.40;;
13985;SDS011;7067;51.832;8.296;2022-09-09T13:43:36;2.42;;;0.28;;
13985;SDS011;7067;51.832;8.296;2022-09-09T13:46:21;1.35;;;0.60;;
13985;SDS011;7067;51.832;8.296;2022-09-09T13:54:04;2.78;;;0.50;;
13985;SDS011;7067;51.832;8.296;2022-09-09T13:56:31;2.47;;;0.93;;
13985;SDS011;7067;51.832;8.296;2022-09-09T13:59:00;2.42;;;0.82;;
13985;SDS011;7067;51.832;8.296;2022-09-09T14:01:26;2.05;;;0.50;;
13985;SDS011;7067;51.832;8.296;2022-09-09T14:03:52;1.98;;;0.55;;
13985;SDS011;7067;51.832;8.296;2022-09-09T14:06:18;1.65;;;0.40;;
13985;SDS011;7067;51.832;8.296;2022-09-09T14:08:43;2.38;;;0.60;;
13985;SDS011;7067;51.832;8.296;2022-09-09T14:11:11;1.33;;;0.65;;
13985;SDS011;7067;51.832;8.296;2022-09-09T14:13:37;1.95;;;0.50;;
13985;SDS011;7067;51.832;8.296;2022-09-09T14:16:03;4.00;;;0.60;;
13985;SDS011;7067;51.832;8.296;2022-09-09T14:18:28;1.95;;;0.50;;
13985;SDS011;7067;51.832;8.296;2022-09-09T14:20:54;2.08;;;0.52;;
13985;SDS011;7067;51.832;8.296;2022-09-09T14:23:19;2.42;;;0.60;;
13985;SDS011;7067;51.832;8.296;2022-09-09T14:25:46;1.67;;;0.50;;
13985;SDS011;7067;51.832;8.296;2022-09-09T14:28:12;2.40;;;0.70;;
13985;SDS011;7067;51.832;8.296;2022-09-09T14:30:39;5.28;;;0.68;;
13985;SDS011;7067;51.832;8.296;2022-09-09T14:33:05;2.22;;;0.50;;
13985;SDS011;7067;51.832;8.296;2022-09-09T14:35:31;3.97;;;0.68;;
13985;SDS011;7067;51.832;8.296;2022-09-09T14:37:58;2.60;;;0.65;;
13985;SDS011;7067;51.832;8.296;2022-09-09T14:40:27;3.65;;;0.47;;
13985;SDS011;7067;51.832;8.296;2022-09-09T14:42:52;5.15;;;0.68;;
13985;SDS011;7067;51.832;8.296;2022-09-09T14:45:18;2.75;;;0.70;;
13985;SDS011;7067;51.832;8.296;2022-09-09T14:47:44;1.92;;;0.52;;
13985;SDS011;7067;51.832;8.296;2022-09-09T14:50:10;3.67;;;0.82;;
13985;SDS011;7067;51.832;8.296;2022-09-09T14:52:37;3.50;;;0.65;;
13985;SDS011;7067;51.832;8.296;2022-09-09T14:55:02;2.47;;;0.70;;
13985;SDS011;7067;51.832;8.296;2022-09-09T14:57:28;3.45;;;0.70;;
13985;SDS011;7067;51.832;8.296;2022-09-09T14:59:53;2.63;;;0.80;;
13985;SDS011;7067;51.832;8.296;2022-09-09T15:02:19;4.00;;;0.77;;
13985;SDS011;7067;51.832;8.296;2022-09-09T15:04:44;3.25;;;0.93;;
13985;SDS011;7067;51.832;8.296;2022-09-09T15:07:09;1.88;;;0.73;;
13985;SDS011;7067;51.832;8.296;2022-09-09T15:09:35;1.85;;;0.40;;
13985;SDS011;7067;51.832;8.296;2022-09-09T15:12:02;1.10;;;0.50;;
13985;SDS011;7067;51.832;8.296;2022-09-09T15:14:27;1.02;;;0.65;;
13985;SDS011;7067;51.832;8.296;2022-09-09T15:16:53;3.42;;;0.85;;
13985;SDS011;7067;51.832;8.296;2022-09-09T15:19:18;3.80;;;0.90;;
13985;SDS011;7067;51.832;8.296;2022-09-09T15:21:43;0.98;;;0.50;;
13985;SDS011;7067;51.832;8.296;2022-09-09T15:24:09;1.85;;;0.47;;
13985;SDS011;7067;51.832;8.296;2022-09-09T15:26:35;3.03;;;0.47;;
13985;SDS011;7067;51.832;8.296;2022-09-09T15:29:03;2.50;;;0.80;;
13985;SDS011;7067;51.832;8.296;2022-09-09T15:31:29;1.65;;;0.50;;
13985;SDS011;7067;51.832;8.296;2022-09-09T15:33:56;1.80;;;0.50;;
13985;SDS011;7067;51.832;8.296;2022-09-09T15:36:26;4.80;;;0.85;;
13985;SDS011;7067;51.832;8.296;2022-09-09T15:38:59;1.30;;;0.43;;
13985;SDS011;7067;51.832;8.296;2022-09-09T15:41:25;1.25;;;0.70;;
13985;SDS011;7067;51.832;8.296;2022-09-09T15:43:52;2.42;;;0.68;;
13985;SDS011;7067;51.832;8.296;2022-09-09T15:48:49;2.28;;;0.88;;
13985;SDS011;7067;51.832;8.296;2022-09-09T15:51:15;1.90;;;0.60;;
13985;SDS011;7067;51.832;8.296;2022-09-09T15:53:41;2.65;;;1.27;;
13985;SDS011;7067;51.832;8.296;2022-09-09T15:56:06;3.15;;;0.60;;
13985;SDS011;7067;51.832;8.296;2022-09-09T15:58:32;5.18;;;0.63;;
13985;SDS011;7067;51.832;8.296;2022-09-09T16:01:04;3.70;;;0.57;;
13985;SDS011;7067;51.832;8.296;2022-09-09T16:03:39;2.28;;;0.70;;
13985;SDS011;7067;51.832;8.296;2022-09-09T16:06:07;2.05;;;0.75;;
13985;SDS011;7067;51.832;8.296;2022-09-09T16:08:34;2.13;;;0.80;;
13985;SDS011;7067;51.832;8.296;2022-09-09T16:11:13;1.60;;;0.60;;
13985;SDS011;7067;51.832;8.296;2022-09-09T16:13:43;1.67;;;0.47;;
13985;SDS011;7067;51.832;8.296;2022-09-09T16:16:13;3.58;;;0.82;;
13985;SDS011;7067;51.832;8.296;2022-09-09T16:18:40;2.83;;;0.63;;
13985;SDS011;7067;51.832;8.296;2022-09-09T16:21:07;2.30;;;0.68;;
13985;SDS011;7067;51.832;8.296;2022-09-09T16:23:34;5.18;;;1.25;;
13985;SDS011;7067;51.832;8.296;2022-09-09T16:26:00;3.35;;;0.80;;
13985;SDS011;7067;51.832;8.296;2022-09-09T16:28:26;2.17;;;0.73;;
13985;SDS011;7067;51.832;8.296;2022-09-09T16:30:52;2.30;;;0.52;;
13985;SDS011;7067;51.832;8.296;2022-09-09T16:33:18;1.55;;;0.90;;
13985;SDS011;7067;51.832;8.296;2022-09-09T16:35:43;2.80;;;0.50;;
13985;SDS011;7067;51.832;8.296;2022-09-09T16:38:09;1.20;;;0.50;;
13985;SDS011;7067;51.832;8.296;2022-09-09T16:40:35;1.65;;;0.65;;
13985;SDS011;7067;51.832;8.296;2022-09-09T16:43:01;1.27;;;0.40;;
13985;SDS011;7067;51.832;8.296;2022-09-09T16:45:27;2.25;;;0.50;;
13985;SDS011;7067;51.832;8.296;2022-09-09T16:47:52;1.55;;;0.38;;
13985;SDS011;7067;51.832;8.296;2022-09-09T16:50:18;2.03;;;0.68;;
13985;SDS011;7067;51.832;8.296;2022-09-09T16:52:45;1.08;;;0.60;;
13985;SDS011;7067;51.832;8.296;2022-09-09T16:55:11;2.20;;;1.00;;
13985;SDS011;7067;51.832;8.296;2022-09-09T16:57:36;2.20;;;0.65;;
13985;SDS011;7067;51.832;8.296;2022-09-09T17:00:03;1.00;;;0.50;;
13985;SDS011;7067;51.832;8.296;2022-09-09T17:02:30;4.63;;;0.68;;
13985;SDS011;7067;51.832;8.296;2022-09-09T17:04:56;1.70;;;0.38;;
13985;SDS011;7067;51.832;8.296;2022-09-09T17:07:21;2.08;;;0.40;;
13985;SDS011;7067;51.832;8.296;2022-09-09T17:09:47;3.80;;;0.63;;
13985;SDS011;7067;51.832;8.296;2022-09-09T17:12:13;1.40;;;0.63;;
13985;SDS011;7067;51.832;8.296;2022-09-09T17:14:38;4.32;;;0.68;;
13985;SDS011;7067;51.832;8.296;2022-09-09T17:17:03;1.92;;;0.60;;
13985;SDS011;7067;51.832;8.296;2022-09-09T17:19:29;3.13;;;0.95;;